createdAt,value
2015-06-13T00:55:29.718Z,311
2015-06-13T00:55:48.358Z,313
2015-06-13T00:56:06.843Z,317
2015-06-13T00:56:25.298Z,316
2015-06-13T00:56:43.704Z,309
2015-06-13T00:57:02.095Z,303
2015-06-13T00:57:20.517Z,295
2015-06-13T00:57:38.910Z,276
2015-06-13T00:57:57.301Z,282
2015-06-13T00:58:15.801Z,301
2015-06-13T00:58:34.256Z,325
2015-06-13T00:58:52.709Z,340
2015-06-13T00:59:11.131Z,333
2015-06-13T00:59:29.772Z,267
2015-06-13T00:59:48.509Z,262
2015-06-13T01:00:06.978Z,268
2015-06-13T01:00:25.368Z,251
2015-06-13T01:00:43.840Z,249
2015-06-13T01:01:02.215Z,255
2015-06-13T01:01:20.637Z,230
2015-06-13T01:01:39.028Z,239
2015-06-13T01:01:57.451Z,241
2015-06-13T01:02:15.920Z,317
2015-06-13T01:02:34.373Z,268
2015-06-13T01:02:52.844Z,268
2015-06-13T01:03:11.250Z,278
2015-06-13T01:03:29.750Z,259
2015-06-13T01:03:48.219Z,275
2015-06-13T01:04:06.847Z,249
2015-06-13T01:04:25.410Z,267
2015-06-13T01:04:43.816Z,234
2015-06-13T01:05:02.240Z,245
2015-06-13T01:05:21.005Z,237
2015-06-13T01:05:39.380Z,270
2015-06-13T01:05:57.771Z,255
2015-06-13T01:06:16.274Z,258
2015-06-13T01:06:34.711Z,238
2015-06-13T01:06:53.133Z,233
2015-06-13T01:07:11.557Z,238
2015-06-13T01:07:30.182Z,231
2015-06-13T01:07:48.729Z,222
2015-06-13T01:08:07.245Z,217
2015-06-13T01:08:25.622Z,211
2015-06-13T01:08:44.059Z,205
2015-06-13T01:09:02.575Z,207
2015-06-13T01:09:21.109Z,208
2015-06-13T01:09:39.500Z,208
2015-06-13T01:09:57.890Z,230
2015-06-13T01:10:16.265Z,178
2015-06-13T01:10:34.720Z,169
2015-06-13T01:10:53.111Z,167
2015-06-13T01:11:11.517Z,194
2015-06-13T01:11:30.114Z,177
2015-06-13T01:11:48.583Z,198
2015-06-13T01:12:06.973Z,168
2015-06-13T01:12:25.364Z,166
2015-06-13T01:12:43.866Z,167
2015-06-13T01:13:02.257Z,169
2015-06-13T01:13:20.725Z,169
2015-06-13T01:13:39.322Z,173
2015-06-13T01:13:57.713Z,173
2015-06-13T01:14:16.166Z,173
2015-06-13T01:14:34.728Z,173
2015-06-13T01:14:53.122Z,171
2015-06-13T01:15:11.638Z,170
2015-06-13T01:15:30.075Z,170
2015-06-13T01:15:48.468Z,168
2015-06-13T01:16:07.062Z,170
2015-06-13T01:16:25.624Z,169
2015-06-13T01:16:43.468Z,173
2015-06-13T01:17:01.876Z,174
2015-06-13T01:17:20.251Z,169
2015-06-13T01:17:38.860Z,169
2015-06-13T01:17:57.317Z,194
2015-06-13T01:18:15.770Z,171
2015-06-13T01:18:34.551Z,172
2015-06-13T01:18:53.004Z,174
2015-06-13T01:19:11.600Z,212
2015-06-13T01:19:30.287Z,173
2015-06-13T01:19:48.709Z,211
2015-06-13T01:20:07.087Z,171
2015-06-13T01:20:25.509Z,169
2015-06-13T01:20:43.884Z,169
2015-06-13T01:21:02.290Z,169
2015-06-13T01:21:20.683Z,169
2015-06-13T01:21:39.402Z,170
2015-06-13T01:21:57.808Z,171
2015-06-13T01:22:16.280Z,167
2015-06-13T01:22:34.702Z,176
2015-06-13T01:22:53.108Z,173
2015-06-13T01:23:11.561Z,175
2015-06-13T01:23:29.908Z,176
2015-06-13T01:23:48.314Z,176
2015-06-13T01:24:06.595Z,175
2015-06-13T01:24:25.190Z,178
2015-06-13T01:24:43.690Z,179
2015-06-13T01:25:02.127Z,178
2015-06-13T01:25:20.440Z,178
2015-06-13T01:25:38.912Z,176
2015-06-13T01:25:57.193Z,179
2015-06-13T01:26:15.662Z,178
2015-06-13T01:26:33.946Z,181
2015-06-13T01:26:52.321Z,180
2015-06-13T01:27:10.696Z,180
2015-06-13T01:27:29.383Z,179
2015-06-13T01:27:47.668Z,178
2015-06-13T01:28:06.074Z,179
2015-06-13T01:28:24.449Z,179
2015-06-13T01:28:42.857Z,173
2015-06-13T01:29:01.279Z,173
2015-06-13T01:29:19.701Z,176
2015-06-13T01:29:38.123Z,188
2015-06-13T01:29:56.438Z,172
2015-06-13T01:30:15.110Z,177
2015-06-13T01:30:34.001Z,199
2015-06-13T01:30:52.392Z,182
2015-06-13T01:31:10.892Z,178
2015-06-13T01:31:29.283Z,213
2015-06-13T01:31:47.580Z,185
2015-06-13T01:32:06.083Z,182
2015-06-13T01:32:24.505Z,182
2015-06-13T01:32:43.005Z,187
2015-06-13T01:33:01.289Z,183
2015-06-13T01:33:19.930Z,223
2015-06-13T01:33:38.352Z,188
2015-06-13T01:33:56.820Z,196
2015-06-13T01:34:15.229Z,218
2015-06-13T01:34:33.604Z,191
2015-06-13T01:34:52.025Z,209
2015-06-13T01:35:10.341Z,207
2015-06-13T01:35:28.700Z,208
2015-06-13T01:35:47.107Z,234
2015-06-13T01:36:05.591Z,180
2015-06-13T01:36:24.155Z,183
2015-06-13T01:36:42.655Z,182
2015-06-13T01:37:00.937Z,209
2015-06-13T01:37:19.612Z,201
2015-06-13T01:37:38.096Z,212
2015-06-13T01:37:56.799Z,213
2015-06-13T01:38:15.283Z,216
2015-06-13T01:38:33.707Z,214
2015-06-13T01:38:52.176Z,206
2015-06-13T01:39:10.567Z,210
2015-06-13T01:39:28.882Z,211
2015-06-13T01:39:47.523Z,213
2015-06-13T01:40:06.288Z,212
2015-06-13T01:40:24.710Z,212
2015-06-13T01:40:43.150Z,212
2015-06-13T01:41:01.681Z,205
2015-06-13T01:41:20.009Z,206
2015-06-13T01:41:38.481Z,204
2015-06-13T01:41:56.981Z,204
2015-06-13T01:42:15.684Z,204
2015-06-13T01:42:33.465Z,205
2015-06-13T01:42:52.186Z,204
2015-06-13T01:43:10.592Z,200
2015-06-13T01:43:29.045Z,186
2015-06-13T01:43:47.454Z,187
2015-06-13T01:44:05.282Z,185
2015-06-13T01:44:23.579Z,184
2015-06-13T01:44:42.219Z,183
2015-06-13T01:45:00.597Z,185
2015-06-13T01:45:18.894Z,184
2015-06-13T01:45:37.332Z,188
2015-06-13T01:45:55.756Z,188
2015-06-13T01:46:14.162Z,189
2015-06-13T01:46:32.740Z,187
2015-06-13T01:46:51.427Z,189
2015-06-13T01:47:09.837Z,186
2015-06-13T01:47:28.212Z,186
2015-06-13T01:47:46.555Z,184
2015-06-13T01:48:04.965Z,185
2015-06-13T01:48:23.277Z,188
2015-06-13T01:48:41.652Z,187
2015-06-13T01:48:59.949Z,187
2015-06-13T01:49:18.545Z,185
2015-06-13T01:49:37.014Z,186
2015-06-13T01:49:55.326Z,187
2015-06-13T01:50:13.625Z,189
2015-06-13T01:50:31.453Z,188
2015-06-13T01:50:49.906Z,188
2015-06-13T01:51:08.266Z,183
2015-06-13T01:51:26.612Z,183
2015-06-13T01:51:45.019Z,188
2015-06-13T01:52:03.612Z,185
2015-06-13T01:52:22.209Z,186
2015-06-13T01:52:40.631Z,186
2015-06-13T01:52:59.068Z,185
2015-06-13T01:53:17.365Z,186
2015-06-13T01:53:35.664Z,188
2015-06-13T01:53:54.117Z,184
2015-06-13T01:54:12.602Z,186
2015-06-13T01:54:31.010Z,186
2015-06-13T01:54:49.572Z,188
2015-06-13T01:55:08.401Z,186
2015-06-13T01:55:26.947Z,188
2015-06-13T01:55:45.404Z,186
2015-06-13T01:56:03.732Z,185
2015-06-13T01:56:22.169Z,183
2015-06-13T01:56:40.609Z,184
2015-06-13T01:56:58.952Z,181
2015-06-13T01:57:17.390Z,176
2015-06-13T01:57:35.843Z,176
2015-06-13T01:57:54.251Z,176
2015-06-13T01:58:12.658Z,176
2015-06-13T01:58:31.048Z,177
2015-06-13T01:58:49.457Z,173
2015-06-13T01:59:07.895Z,171
2015-06-13T01:59:26.348Z,171
2015-06-13T01:59:45.051Z,176
2015-06-13T02:00:03.475Z,174
2015-06-13T02:00:22.022Z,177
2015-06-13T02:00:40.428Z,177
2015-06-13T02:00:58.869Z,177
2015-06-13T02:01:17.275Z,177
2015-06-13T02:01:35.728Z,178
2015-06-13T02:01:54.259Z,176
2015-06-13T02:02:12.872Z,177
2015-06-13T02:02:31.465Z,177
2015-06-13T02:02:50.262Z,176
2015-06-13T02:03:08.671Z,176
2015-06-13T02:03:27.046Z,180
2015-06-13T02:03:45.608Z,176
2015-06-13T02:04:04.186Z,175
2015-06-13T02:04:22.579Z,178
2015-06-13T02:04:40.985Z,177
2015-06-13T02:04:59.626Z,177
2015-06-13T02:05:18.347Z,176
2015-06-13T02:05:37.097Z,176
2015-06-13T02:05:55.582Z,173
2015-06-13T02:06:14.019Z,179
2015-06-13T02:06:32.490Z,183
2015-06-13T02:06:51.068Z,174
2015-06-13T02:07:09.553Z,176
2015-06-13T02:07:28.009Z,179
2015-06-13T02:07:46.556Z,178
2015-06-13T02:08:05.040Z,179
2015-06-13T02:08:23.462Z,180
2015-06-13T02:08:42.059Z,179
2015-06-13T02:09:00.621Z,182
2015-06-13T02:09:19.121Z,177
2015-06-13T02:09:37.498Z,178
2015-06-13T02:09:55.889Z,180
2015-06-13T02:10:14.436Z,182
2015-06-13T02:10:32.982Z,177
2015-06-13T02:10:51.469Z,178
2015-06-13T02:11:09.969Z,178
2015-06-13T02:11:28.406Z,178
2015-06-13T02:11:46.987Z,178
2015-06-13T02:12:05.409Z,181
2015-06-13T02:12:23.925Z,179
2015-06-13T02:12:42.284Z,177
2015-06-13T02:13:00.694Z,172
2015-06-13T02:13:19.225Z,171
2015-06-13T02:13:37.647Z,175
2015-06-13T02:13:56.180Z,175
2015-06-13T02:14:14.680Z,174
2015-06-13T02:14:33.180Z,176
2015-06-13T02:14:51.571Z,176
2015-06-13T02:15:10.074Z,177
2015-06-13T02:15:29.105Z,176
2015-06-13T02:15:47.527Z,176
2015-06-13T02:16:05.935Z,173
2015-06-13T02:16:24.513Z,173
2015-06-13T02:16:42.919Z,173
2015-06-13T02:17:01.326Z,174
2015-06-13T02:17:19.766Z,174
2015-06-13T02:17:38.282Z,174
2015-06-13T02:17:57.032Z,175
2015-06-13T02:18:16.643Z,175
2015-06-13T02:18:35.081Z,176
2015-06-13T02:18:53.502Z,174
2015-06-13T02:19:12.192Z,173
2015-06-13T02:19:30.583Z,173
2015-06-13T02:19:49.051Z,173
2015-06-13T02:20:07.567Z,171
2015-06-13T02:20:26.054Z,171
2015-06-13T02:20:44.539Z,164
2015-06-13T02:21:02.992Z,164
2015-06-13T02:21:21.588Z,164
2015-06-13T02:21:39.994Z,164
2015-06-13T02:21:58.603Z,164
2015-06-13T02:22:17.416Z,164
2015-06-13T02:22:35.466Z,164
2015-06-13T02:22:53.856Z,163
2015-06-13T02:23:12.497Z,164
2015-06-13T02:23:30.280Z,164
2015-06-13T02:23:48.702Z,164
2015-06-13T02:24:07.280Z,164
2015-06-13T02:24:25.671Z,164
2015-06-13T02:24:44.079Z,164
2015-06-13T02:25:02.501Z,164
2015-06-13T02:25:20.985Z,164
2015-06-13T02:25:39.363Z,164
2015-06-13T02:25:57.801Z,164
2015-06-13T02:26:16.191Z,164
2015-06-13T02:26:34.582Z,164
2015-06-13T02:26:52.335Z,164
2015-06-13T02:27:10.897Z,164
2015-06-13T02:27:29.288Z,164
2015-06-13T02:27:47.743Z,165
2015-06-13T02:28:06.212Z,165
2015-06-13T02:28:24.618Z,164
2015-06-13T02:28:43.134Z,165
2015-06-13T02:29:01.543Z,165
2015-06-13T02:29:20.137Z,164
2015-06-13T02:29:38.637Z,164
2015-06-13T02:29:57.264Z,164
2015-06-13T02:30:15.717Z,164
2015-06-13T02:30:34.186Z,164
2015-06-13T02:30:52.936Z,163
2015-06-13T02:31:11.392Z,163
2015-06-13T02:31:29.782Z,163
2015-06-13T02:31:48.157Z,163
2015-06-13T02:32:06.628Z,163
2015-06-13T02:32:25.039Z,163
2015-06-13T02:32:43.508Z,163
2015-06-13T02:33:02.008Z,163
2015-06-13T02:33:20.558Z,163
2015-06-13T02:33:39.042Z,163
2015-06-13T02:33:57.605Z,163
2015-06-13T02:34:16.075Z,163
2015-06-13T02:34:34.450Z,163
2015-06-13T02:34:52.903Z,163
2015-06-13T02:35:11.481Z,163
2015-06-13T02:35:29.937Z,163
2015-06-13T02:35:48.437Z,163
2015-06-13T02:36:06.859Z,163
2015-06-13T02:36:25.392Z,163
2015-06-13T02:36:43.908Z,165
2015-06-13T02:37:02.314Z,168
2015-06-13T02:37:20.736Z,168
2015-06-13T02:37:39.286Z,168
2015-06-13T02:37:57.676Z,167
2015-06-13T02:38:16.067Z,168
2015-06-13T02:38:34.492Z,168
2015-06-13T02:38:53.132Z,168
2015-06-13T02:39:11.570Z,168
2015-06-13T02:39:30.492Z,168
2015-06-13T02:39:48.572Z,168
2015-06-13T02:40:06.978Z,168
2015-06-13T02:40:25.463Z,168
2015-06-13T02:40:43.997Z,168
2015-06-13T02:41:02.372Z,168
2015-06-13T02:41:20.809Z,168
2015-06-13T02:41:39.200Z,168
2015-06-13T02:41:57.656Z,168
2015-06-13T02:42:16.156Z,168
2015-06-13T02:42:34.547Z,168
2015-06-13T02:42:52.986Z,169
2015-06-13T02:43:11.408Z,169
2015-06-13T02:43:30.049Z,169
2015-06-13T02:43:48.689Z,169
2015-06-13T02:44:07.066Z,169
2015-06-13T02:44:25.566Z,169
2015-06-13T02:44:43.941Z,169
2015-06-13T02:45:02.365Z,169
2015-06-13T02:45:20.740Z,169
2015-06-13T02:45:39.131Z,169
2015-06-13T02:45:57.584Z,169
2015-06-13T02:46:16.040Z,169
2015-06-13T02:46:34.493Z,169
2015-06-13T02:46:52.931Z,169
2015-06-13T02:47:11.387Z,169
2015-06-13T02:47:29.871Z,169
2015-06-13T02:47:48.246Z,169
2015-06-13T02:48:06.715Z,164
2015-06-13T02:48:25.436Z,164
2015-06-13T02:48:43.951Z,165
2015-06-13T02:49:02.420Z,165
2015-06-13T02:49:20.860Z,165
2015-06-13T02:49:39.235Z,164
2015-06-13T02:49:57.625Z,164
2015-06-13T02:50:16.141Z,164
2015-06-13T02:50:34.581Z,166
2015-06-13T02:50:52.863Z,166
2015-06-13T02:51:11.253Z,166
2015-06-13T02:51:29.568Z,165
2015-06-13T02:51:48.052Z,165
2015-06-13T02:52:06.505Z,166
2015-06-13T02:52:25.224Z,165
2015-06-13T02:52:43.649Z,163
2015-06-13T02:53:02.102Z,163
2015-06-13T02:53:20.539Z,163
2015-06-13T02:53:39.245Z,163
2015-06-13T02:53:57.666Z,163
2015-06-13T02:54:16.073Z,166
2015-06-13T02:54:34.557Z,166
2015-06-13T02:54:52.888Z,165
2015-06-13T02:55:11.310Z,166
2015-06-13T02:55:29.701Z,166
2015-06-13T02:55:48.110Z,164
2015-06-13T02:56:06.626Z,166
2015-06-13T02:56:25.016Z,164
2015-06-13T02:56:43.422Z,164
2015-06-13T02:57:01.784Z,167
2015-06-13T02:57:20.237Z,168
2015-06-13T02:57:38.940Z,174
2015-06-13T02:57:57.426Z,180
2015-06-13T02:58:16.005Z,187
2015-06-13T02:58:34.411Z,192
2015-06-13T02:58:52.973Z,199
2015-06-13T02:59:11.367Z,206
2015-06-13T02:59:29.914Z,212
2015-06-13T02:59:48.445Z,219
2015-06-13T03:00:06.916Z,226
2015-06-13T03:00:25.431Z,234
2015-06-13T03:00:43.916Z,241
2015-06-13T03:01:02.416Z,249
2015-06-13T03:01:20.856Z,256
2015-06-13T03:01:39.356Z,263
2015-06-13T03:01:58.091Z,271
2015-06-13T03:02:16.624Z,278
2015-06-13T03:02:35.280Z,284
2015-06-13T03:02:53.765Z,292
2015-06-13T03:03:12.358Z,299
2015-06-13T03:03:30.674Z,306
2015-06-13T03:03:49.346Z,312
2015-06-13T03:04:08.080Z,319
2015-06-13T03:04:26.723Z,324
2015-06-13T03:04:45.285Z,329
2015-06-13T03:05:03.816Z,334
2015-06-13T03:05:22.207Z,338
2015-06-13T03:05:40.663Z,342
2015-06-13T03:05:59.148Z,343
2015-06-13T03:06:17.538Z,346
2015-06-13T03:06:36.071Z,347
2015-06-13T03:06:54.696Z,348
2015-06-13T03:07:13.087Z,347
2015-06-13T03:07:31.571Z,348
2015-06-13T03:07:50.090Z,348
2015-06-13T03:08:08.653Z,349
2015-06-13T03:08:27.137Z,349
2015-06-13T03:08:45.530Z,351
2015-06-13T03:09:03.920Z,352
2015-06-13T03:09:22.483Z,354
2015-06-13T03:09:41.014Z,355
2015-06-13T03:09:59.533Z,359
2015-06-13T03:10:17.923Z,361
2015-06-13T03:10:36.392Z,364
2015-06-13T03:10:54.831Z,367
2015-06-13T03:11:13.394Z,370
2015-06-13T03:11:31.800Z,373
2015-06-13T03:11:50.269Z,376
2015-06-13T03:12:08.748Z,377
2015-06-13T03:12:27.201Z,381
2015-06-13T03:12:45.623Z,384
2015-06-13T03:13:04.030Z,386
2015-06-13T03:13:22.640Z,389
2015-06-13T03:13:41.046Z,392
2015-06-13T03:13:59.655Z,395
2015-06-13T03:14:18.253Z,398
2015-06-13T03:14:36.785Z,401
2015-06-13T03:14:55.238Z,404
2015-06-13T03:15:13.817Z,408
2015-06-13T03:15:32.380Z,412
2015-06-13T03:15:50.770Z,416
2015-06-13T03:16:09.239Z,418
2015-06-13T03:16:27.679Z,424
2015-06-13T03:16:46.054Z,425
2015-06-13T03:17:04.476Z,428
2015-06-13T03:17:23.065Z,431
2015-06-13T03:17:41.362Z,435
2015-06-13T03:17:59.784Z,437
2015-06-13T03:18:18.315Z,441
2015-06-13T03:18:36.839Z,445
2015-06-13T03:18:55.323Z,447
2015-06-13T03:19:13.807Z,451
2015-06-13T03:19:32.472Z,455
2015-06-13T03:19:51.065Z,459
2015-06-13T03:20:09.534Z,463
2015-06-13T03:20:27.909Z,466
2015-06-13T03:20:46.339Z,471
2015-06-13T03:21:04.823Z,475
2015-06-13T03:21:23.495Z,478
2015-06-13T03:21:42.003Z,482
2015-06-13T03:22:00.488Z,486
2015-06-13T03:22:18.941Z,490
2015-06-13T03:22:37.488Z,494
2015-06-13T03:22:56.133Z,498
2015-06-13T03:23:14.665Z,502
2015-06-13T03:23:33.305Z,506
2015-06-13T03:23:51.965Z,510
2015-06-13T03:24:10.575Z,515
2015-06-13T03:24:29.153Z,518
2015-06-13T03:24:47.559Z,523
2015-06-13T03:25:06.017Z,525
2015-06-13T03:25:24.470Z,530
2015-06-13T03:25:42.861Z,535
2015-06-13T03:26:01.287Z,539
2015-06-13T03:26:19.834Z,544
2015-06-13T03:26:38.240Z,550
2015-06-13T03:26:56.771Z,555
2015-06-13T03:27:15.244Z,560
2015-06-13T03:27:33.869Z,566
2015-06-13T03:27:52.275Z,571
2015-06-13T03:28:10.763Z,578
2015-06-13T03:28:29.216Z,583
2015-06-13T03:28:47.622Z,589
2015-06-13T03:29:06.122Z,596
2015-06-13T03:29:24.531Z,599
2015-06-13T03:29:43.000Z,605
2015-06-13T03:30:01.516Z,607
2015-06-13T03:30:19.894Z,614
2015-06-13T03:30:38.659Z,618
2015-06-13T03:30:56.941Z,622
2015-06-13T03:31:15.284Z,626
2015-06-13T03:31:33.678Z,639
2015-06-13T03:31:52.162Z,647
2015-06-13T03:32:10.537Z,647
2015-06-13T03:32:28.931Z,651
2015-06-13T03:32:47.306Z,654
2015-06-13T03:33:05.197Z,656
2015-06-13T03:33:23.540Z,660
2015-06-13T03:33:42.292Z,663
2015-06-13T03:34:00.730Z,665
2015-06-13T03:34:19.511Z,670
2015-06-13T03:34:38.328Z,673
2015-06-13T03:34:56.781Z,676
2015-06-13T03:35:15.171Z,677
2015-06-13T03:35:33.718Z,678
2015-06-13T03:35:52.424Z,682
2015-06-13T03:36:10.784Z,688
2015-06-13T03:36:29.221Z,690
2015-06-13T03:36:47.614Z,693
2015-06-13T03:37:06.036Z,695
2015-06-13T03:37:24.286Z,695
2015-06-13T03:37:42.739Z,698
2015-06-13T03:38:01.367Z,700
2015-06-13T03:38:19.945Z,702
2015-06-13T03:38:38.320Z,704
2015-06-13T03:38:56.744Z,707
2015-06-13T03:39:15.213Z,709
2015-06-13T03:39:33.619Z,711
2015-06-13T03:39:52.134Z,714
2015-06-13T03:40:10.574Z,716
2015-06-13T03:40:28.949Z,719
2015-06-13T03:40:47.511Z,721
2015-06-13T03:41:06.014Z,723
2015-06-13T03:41:24.436Z,726
2015-06-13T03:41:42.936Z,728
2015-06-13T03:42:01.374Z,730
2015-06-13T03:42:19.752Z,733
2015-06-13T03:42:38.221Z,734
2015-06-13T03:42:56.658Z,737
2015-06-13T03:43:15.035Z,739
2015-06-13T03:43:33.566Z,741
2015-06-13T03:43:52.004Z,744
2015-06-13T03:44:10.394Z,747
2015-06-13T03:44:28.787Z,750
2015-06-13T03:44:47.178Z,752
2015-06-13T03:45:05.584Z,758
2015-06-13T03:45:24.009Z,759
2015-06-13T03:45:42.493Z,760
2015-06-13T03:46:00.962Z,763
2015-06-13T03:46:19.353Z,761
2015-06-13T03:46:37.762Z,763
2015-06-13T03:46:56.418Z,765
2015-06-13T03:47:14.965Z,767
2015-06-13T03:47:33.529Z,769
2015-06-13T03:47:52.264Z,772
2015-06-13T03:48:10.795Z,749
2015-06-13T03:48:29.295Z,748
2015-06-13T03:48:47.672Z,746
2015-06-13T03:49:06.281Z,745
2015-06-13T03:49:24.688Z,745
2015-06-13T03:49:43.128Z,746
2015-06-13T03:50:01.519Z,746
2015-06-13T03:50:19.988Z,746
2015-06-13T03:50:37.753Z,746
2015-06-13T03:50:56.458Z,746
2015-06-13T03:51:14.849Z,747
2015-06-13T03:51:33.333Z,747
2015-06-13T03:51:51.758Z,747
2015-06-13T03:52:10.258Z,746
2015-06-13T03:52:28.664Z,747
2015-06-13T03:52:47.118Z,746
2015-06-13T03:53:05.511Z,746
2015-06-13T03:53:23.902Z,746
2015-06-13T03:53:42.449Z,746
2015-06-13T03:54:00.982Z,746
2015-06-13T03:54:19.419Z,746
2015-06-13T03:54:37.951Z,746
2015-06-13T03:54:56.357Z,747
2015-06-13T03:55:14.751Z,747
2015-06-13T03:55:33.422Z,747
2015-06-13T03:55:51.813Z,747
2015-06-13T03:56:10.206Z,747
2015-06-13T03:56:28.659Z,747
2015-06-13T03:56:47.065Z,747
2015-06-13T03:57:05.487Z,747
2015-06-13T03:57:24.037Z,747
2015-06-13T03:57:42.459Z,747
2015-06-13T03:58:01.084Z,747
2015-06-13T03:58:19.570Z,747
2015-06-13T03:58:37.992Z,747
2015-06-13T03:58:56.601Z,746
2015-06-13T03:59:15.008Z,746
2015-06-13T03:59:33.400Z,746
2015-06-13T03:59:51.838Z,745
2015-06-13T04:00:10.306Z,748
2015-06-13T04:00:28.716Z,747
2015-06-13T04:00:47.153Z,747
2015-06-13T04:01:05.591Z,747
2015-06-13T04:01:24.091Z,747
2015-06-13T04:01:42.530Z,747
2015-06-13T04:02:00.936Z,747
2015-06-13T04:02:19.327Z,747
2015-06-13T04:02:37.752Z,746
2015-06-13T04:02:56.221Z,746
2015-06-13T04:03:14.643Z,746
2015-06-13T04:03:33.111Z,747
2015-06-13T04:03:51.582Z,747
2015-06-13T04:04:10.035Z,747
2015-06-13T04:04:28.410Z,747
2015-06-13T04:04:46.897Z,747
2015-06-13T04:05:05.303Z,747
2015-06-13T04:05:23.850Z,747
2015-06-13T04:05:42.365Z,748
2015-06-13T04:06:00.759Z,747
2015-06-13T04:06:19.181Z,747
2015-06-13T04:06:37.556Z,747
2015-06-13T04:06:55.964Z,746
2015-06-13T04:07:14.323Z,746
2015-06-13T04:07:32.855Z,747
2015-06-13T04:07:51.339Z,746
2015-06-13T04:08:09.764Z,746
2015-06-13T04:08:28.342Z,746
2015-06-13T04:08:46.795Z,746
2015-06-13T04:09:05.203Z,744
2015-06-13T04:09:23.750Z,745
2015-06-13T04:09:42.328Z,746
2015-06-13T04:10:00.828Z,745
2015-06-13T04:10:19.222Z,746
2015-06-13T04:10:37.722Z,746
2015-06-13T04:10:56.113Z,746
2015-06-13T04:11:14.866Z,746
2015-06-13T04:11:33.319Z,746
2015-06-13T04:11:51.694Z,746
2015-06-13T04:12:10.163Z,746
2015-06-13T04:12:28.727Z,746
2015-06-13T04:12:47.149Z,746
2015-06-13T04:13:05.586Z,746
2015-06-13T04:13:24.168Z,746
2015-06-13T04:13:42.761Z,743
2015-06-13T04:14:01.277Z,744
2015-06-13T04:14:19.761Z,745
2015-06-13T04:14:38.232Z,745
2015-06-13T04:14:56.748Z,746
2015-06-13T04:15:15.232Z,746
2015-06-13T04:15:33.687Z,746
2015-06-13T04:15:52.047Z,746
2015-06-13T04:16:10.531Z,746
2015-06-13T04:16:29.140Z,746
2015-06-13T04:16:47.659Z,746
2015-06-13T04:17:06.081Z,746
2015-06-13T04:17:24.518Z,746
2015-06-13T04:17:42.912Z,746
2015-06-13T04:18:01.287Z,746
2015-06-13T04:18:19.771Z,746
2015-06-13T04:18:38.178Z,746
2015-06-13T04:18:56.664Z,746
2015-06-13T04:19:15.226Z,747
2015-06-13T04:19:33.648Z,747
2015-06-13T04:19:52.103Z,747
2015-06-13T04:20:10.619Z,747
2015-06-13T04:20:29.041Z,746
2015-06-13T04:20:47.541Z,746
2015-06-13T04:21:05.966Z,747
2015-06-13T04:21:24.810Z,747
2015-06-13T04:21:43.403Z,747
2015-06-13T04:22:01.874Z,747
2015-06-13T04:22:20.343Z,747
2015-06-13T04:22:38.796Z,747
2015-06-13T04:22:57.249Z,747
2015-06-13T04:23:15.798Z,746
2015-06-13T04:23:34.423Z,746
2015-06-13T04:23:52.860Z,746
2015-06-13T04:24:11.363Z,746
2015-06-13T04:24:29.957Z,746
2015-06-13T04:24:48.332Z,745
2015-06-13T04:25:06.817Z,744
2015-06-13T04:25:25.522Z,747
2015-06-13T04:25:44.022Z,748
2015-06-13T04:26:02.459Z,747
2015-06-13T04:26:20.994Z,747
2015-06-13T04:26:39.448Z,747
2015-06-13T04:26:57.838Z,747
2015-06-13T04:27:16.229Z,746
2015-06-13T04:27:34.950Z,746
2015-06-13T04:27:53.403Z,746
2015-06-13T04:28:11.856Z,746
2015-06-13T04:28:30.359Z,746
2015-06-13T04:28:48.999Z,746
2015-06-13T04:29:07.640Z,746
2015-06-13T04:29:26.249Z,746
2015-06-13T04:29:45.000Z,745
2015-06-13T04:30:03.485Z,744
2015-06-13T04:30:21.922Z,746
2015-06-13T04:30:40.363Z,745
2015-06-13T04:30:58.847Z,744
2015-06-13T04:31:17.269Z,751
2015-06-13T04:31:36.097Z,751
2015-06-13T04:31:54.475Z,752
2015-06-13T04:32:12.881Z,751
2015-06-13T04:32:31.335Z,751
2015-06-13T04:32:50.008Z,751
2015-06-13T04:33:08.430Z,750
2015-06-13T04:33:26.743Z,749
2015-06-13T04:33:45.415Z,750
2015-06-13T04:34:04.043Z,749
2015-06-13T04:34:22.840Z,750
2015-06-13T04:34:41.449Z,749
2015-06-13T04:34:59.904Z,748
2015-06-13T04:35:18.779Z,748
2015-06-13T04:35:37.217Z,748
2015-06-13T04:35:55.748Z,749
2015-06-13T04:36:14.125Z,749
2015-06-13T04:36:32.765Z,749
2015-06-13T04:36:51.140Z,749
2015-06-13T04:37:09.909Z,748
2015-06-13T04:37:28.300Z,747
2015-06-13T04:37:46.737Z,747
2015-06-13T04:38:05.128Z,747
2015-06-13T04:38:23.865Z,747
2015-06-13T04:38:42.271Z,747
2015-06-13T04:39:00.725Z,747
2015-06-13T04:39:19.102Z,747
2015-06-13T04:39:37.617Z,749
2015-06-13T04:39:56.086Z,749
2015-06-13T04:40:14.570Z,748
2015-06-13T04:40:33.042Z,748
2015-06-13T04:40:51.589Z,748
2015-06-13T04:41:10.245Z,748
2015-06-13T04:41:28.794Z,749
2015-06-13T04:41:47.544Z,749
2015-06-13T04:42:06.013Z,749
2015-06-13T04:42:24.607Z,749
2015-06-13T04:42:43.094Z,749
2015-06-13T04:43:01.516Z,748
2015-06-13T04:43:19.891Z,748
2015-06-13T04:43:38.378Z,748
2015-06-13T04:43:56.941Z,748
2015-06-13T04:44:15.331Z,747
2015-06-13T04:44:33.769Z,748
2015-06-13T04:44:52.145Z,748
2015-06-13T04:45:10.770Z,748
2015-06-13T04:45:29.364Z,748
2015-06-13T04:45:47.851Z,748
2015-06-13T04:46:06.257Z,748
2015-06-13T04:46:24.742Z,748
2015-06-13T04:46:43.195Z,749
2015-06-13T04:47:01.916Z,749
2015-06-13T04:47:20.323Z,749
2015-06-13T04:47:38.963Z,748
2015-06-13T04:47:57.575Z,748
2015-06-13T04:48:16.215Z,749
2015-06-13T04:48:34.622Z,748
2015-06-13T04:48:53.028Z,748
2015-06-13T04:49:11.640Z,748
2015-06-13T04:49:30.109Z,748
2015-06-13T04:49:48.531Z,748
2015-06-13T04:50:07.142Z,747
2015-06-13T04:50:25.595Z,747
2015-06-13T04:50:44.002Z,748
2015-06-13T04:51:02.392Z,748
2015-06-13T04:51:20.863Z,749
2015-06-13T04:51:39.238Z,747
2015-06-13T04:51:57.769Z,747
2015-06-13T04:52:16.147Z,747
2015-06-13T04:52:34.632Z,747
2015-06-13T04:52:53.319Z,747
2015-06-13T04:53:11.741Z,747
2015-06-13T04:53:30.213Z,747
2015-06-13T04:53:48.353Z,747
2015-06-13T04:54:06.885Z,747
2015-06-13T04:54:25.308Z,747
2015-06-13T04:54:43.949Z,747
2015-06-13T04:55:01.824Z,747
2015-06-13T04:55:20.512Z,748
2015-06-13T04:55:38.968Z,748
2015-06-13T04:55:57.390Z,748
2015-06-13T04:56:16.108Z,748
2015-06-13T04:56:34.642Z,748
2015-06-13T04:56:53.079Z,748
2015-06-13T04:57:11.501Z,748
2015-06-13T04:57:29.938Z,748
2015-06-13T04:57:48.565Z,748
2015-06-13T04:58:07.097Z,748
2015-06-13T04:58:25.597Z,748
2015-06-13T04:58:44.083Z,748
2015-06-13T04:59:02.567Z,748
2015-06-13T04:59:21.130Z,748
2015-06-13T04:59:39.849Z,747
2015-06-13T04:59:58.445Z,748
2015-06-13T05:00:16.914Z,748
2015-06-13T05:00:35.477Z,748
2015-06-13T05:00:53.855Z,748
2015-06-13T05:01:12.417Z,747
2015-06-13T05:01:30.902Z,747
2015-06-13T05:01:49.339Z,747
2015-06-13T05:02:07.732Z,747
2015-06-13T05:02:26.310Z,748
2015-06-13T05:02:44.888Z,747
2015-06-13T05:03:03.610Z,748
2015-06-13T05:03:22.000Z,747
2015-06-13T05:03:40.453Z,747
2015-06-13T05:03:58.953Z,747
2015-06-13T05:04:17.612Z,746
2015-06-13T05:04:36.330Z,746
2015-06-13T05:04:54.705Z,746
2015-06-13T05:05:13.318Z,746
2015-06-13T05:05:31.943Z,745
2015-06-13T05:05:50.474Z,745
2015-06-13T05:06:09.083Z,745
2015-06-13T05:06:27.555Z,745
2015-06-13T05:06:46.008Z,746
2015-06-13T05:07:04.774Z,747
2015-06-13T05:07:23.198Z,747
2015-06-13T05:07:41.667Z,747
2015-06-13T05:08:00.198Z,746
2015-06-13T05:08:19.010Z,746
2015-06-13T05:08:37.387Z,746
2015-06-13T05:08:56.059Z,747
2015-06-13T05:09:14.559Z,747
2015-06-13T05:09:33.031Z,747
2015-06-13T05:09:51.625Z,747